Time,TemperatureF,DewpointF,PressureIn,WindDirection,WindDirectionDegrees,WindSpeedMPH,WindSpeedGustMPH,Humidity,HourlyPrecipIn,Conditions,Clouds,dailyrainin,SoftwareType,DateUTC
2013-06-07 14:20:00,76.1,70.9,29.75,WSW,246,1.0,1.0,84,0.06,,,0.02,Wunderground v.1.15,2013-06-07 19:20:00,
2013-06-07 17:25:00,85.8,69.3,29.72,South,178,2.0,6.0,58,0.00,,,0.02,Wunderground v.1.15,2013-06-07 22:25:00,
2013-06-07 17:35:00,86.2,69.7,29.72,WNW,289,1.0,2.0,58,0.00,,,0.02,Wunderground v.1.15,2013-06-07 22:35:00,
2013-06-07 17:40:00,86.4,69.9,29.72,West,263,1.0,2.0,58,0.00,,,0.02,Wunderground v.1.15,2013-06-07 22:40:00,
2013-06-07 17:45:00,86.2,70.2,29.72,West,269,1.0,1.0,59,0.00,,,0.02,Wunderground v.1.15,2013-06-07 22:45:00,
2013-06-07 17:55:00,85.2,70.2,29.72,West,281,1.0,1.0,61,0.00,,,0.02,Wunderground v.1.15,2013-06-07 22:55:00,
2013-06-07 18:00:00,85.2,70.2,29.72,South,188,1.0,1.0,61,0.00,,,0.02,Wunderground v.1.15,2013-06-07 23:00:00,
2013-06-07 18:05:00,84.7,70.2,29.72,SSW,198,1.0,2.0,62,0.00,,,0.02,Wunderground v.1.15,2013-06-07 23:05:00,
2013-06-07 18:10:00,84.2,69.8,29.72,West,261,2.0,4.0,62,0.00,,,0.02,Wunderground v.1.15,2013-06-07 23:10:00,
2013-06-07 18:20:00,83.2,70.7,29.72,NE,34,1.0,4.0,66,0.00,,,0.02,Wunderground v.1.15,2013-06-07 23:20:00,
2013-06-07 18:25:00,82.7,70.6,29.72,NE,34,1.0,4.0,67,0.00,,,0.02,Wunderground v.1.15,2013-06-07 23:25:00,
2013-06-07 18:30:00,82.1,70.1,29.72,ENE,71,1.0,4.0,67,0.00,,,0.02,Wunderground v.1.15,2013-06-07 23:30:00,
2013-06-07 18:40:00,81.2,69.6,29.73,ENE,74,1.0,4.0,68,0.00,,,0.02,Wunderground v.1.15,2013-06-07 23:40:00,
2013-06-07 18:45:00,80.9,69.8,29.73,NE,35,2.0,4.0,69,0.00,,,0.02,Wunderground v.1.15,2013-06-07 23:45:00,
2013-06-07 18:50:00,80.5,69.8,29.73,NE,35,1.0,4.0,70,0.00,,,0.02,Wunderground v.1.15,2013-06-07 23:50:00,
2013-06-07 18:55:00,80.2,69.9,29.73,NE,34,1.0,4.0,71,0.00,,,0.02,Wunderground v.1.15,2013-06-07 23:55:00,
2013-06-07 19:00:00,80.0,69.7,29.73,NNE,23,1.0,4.0,71,0.00,,,0.02,Wunderground v.1.15,2013-06-08 00:00:00,
2013-06-07 19:05:00,79.8,70.0,29.73,NNE,23,1.0,4.0,72,0.00,,,0.02,Wunderground v.1.15,2013-06-08 00:05:00,
2013-06-07 19:15:00,79.5,70.1,29.73,NNE,23,0.0,4.0,73,0.00,,,0.02,Wunderground v.1.15,2013-06-08 00:15:00,
2013-06-07 19:20:00,79.3,70.7,29.73,NNE,22,0.0,4.0,75,0.00,,,0.02,Wunderground v.1.15,2013-06-08 00:20:00,
2013-06-07 19:25:00,79.0,71.2,29.73,NNE,23,0.0,4.0,77,0.00,,,0.02,Wunderground v.1.15,2013-06-08 00:25:00,
2013-06-07 19:30:00,78.7,70.9,29.73,NNE,22,0.0,4.0,77,0.00,,,0.02,Wunderground v.1.15,2013-06-08 00:30:00,
2013-06-07 19:35:00,78.5,70.7,29.73,NNE,23,0.0,4.0,77,0.00,,,0.02,Wunderground v.1.15,2013-06-08 00:35:00,
2013-06-07 19:40:00,78.3,70.9,29.74,NNE,23,0.0,4.0,78,0.00,,,0.02,Wunderground v.1.15,2013-06-08 00:40:00,
2013-06-07 19:45:00,78.2,70.8,29.74,NNE,23,0.0,4.0,78,0.00,,,0.02,Wunderground v.1.15,2013-06-08 00:45:00,
2013-06-07 19:55:00,77.6,70.9,29.75,NNE,23,0.0,4.0,80,0.00,,,0.02,Wunderground v.1.15,2013-06-08 00:55:00,
2013-06-07 20:00:00,77.1,70.5,29.75,NNE,23,0.0,4.0,80,0.00,,,0.02,Wunderground v.1.15,2013-06-08 01:00:00,
2013-06-07 20:05:00,76.4,70.5,29.75,NNE,22,0.0,4.0,82,0.00,,,0.02,Wunderground v.1.15,2013-06-08 01:05:00,
2013-06-07 20:10:00,75.7,70.2,29.75,NNE,22,1.0,1.0,83,0.00,,,0.02,Wunderground v.1.15,2013-06-08 01:10:00,
2013-06-07 20:20:00,74.7,69.9,29.75,NNE,22,0.0,4.0,85,0.00,,,0.02,Wunderground v.1.15,2013-06-08 01:20:00,
2013-06-07 20:25:00,74.3,69.5,29.75,NNE,23,0.0,4.0,85,0.00,,,0.02,Wunderground v.1.15,2013-06-08 01:25:00,
2013-06-07 20:30:00,74.0,69.5,29.75,NNE,22,0.0,4.0,86,0.00,,,0.02,Wunderground v.1.15,2013-06-08 01:30:00,
2013-06-07 20:35:00,73.7,69.2,29.75,NNE,23,0.0,4.0,86,0.00,,,0.02,Wunderground v.1.15,2013-06-08 01:35:00,
2013-06-07 20:40:00,73.5,69.4,29.75,NNE,23,0.0,4.0,87,0.00,,,0.02,Wunderground v.1.15,2013-06-08 01:40:00,
2013-06-07 20:50:00,73.0,68.9,29.75,NNE,23,0.0,4.0,87,0.00,,,0.02,Wunderground v.1.15,2013-06-08 01:50:00,
2013-06-07 21:05:00,72.5,68.7,29.76,NNE,22,0.0,4.0,88,0.00,,,0.02,Wunderground v.1.15,2013-06-08 02:05:00,
2013-06-07 21:10:00,72.2,68.4,29.76,NNE,22,0.0,4.0,88,0.00,,,0.02,Wunderground v.1.15,2013-06-08 02:10:00,
2013-06-07 21:15:00,72.0,68.6,29.76,NNE,23,0.0,4.0,89,0.00,,,0.02,Wunderground v.1.15,2013-06-08 02:15:00,
2013-06-07 21:25:00,71.7,68.3,29.77,NNE,23,0.0,4.0,89,0.00,,,0.02,Wunderground v.1.15,2013-06-08 02:25:00,
2013-06-07 21:30:00,71.6,68.5,29.77,NNE,23,0.0,4.0,90,0.00,,,0.02,Wunderground v.1.15,2013-06-08 02:30:00,
2013-06-07 21:35:00,71.4,68.3,29.77,NNE,22,0.0,4.0,90,0.00,,,0.02,Wunderground v.1.15,2013-06-08 02:35:00,
2013-06-07 21:40:00,71.3,68.2,29.78,NNE,23,0.0,4.0,90,0.00,,,0.02,Wunderground v.1.15,2013-06-08 02:40:00,
2013-06-07 21:45:00,71.2,68.1,29.78,NNE,22,0.0,4.0,90,0.00,,,0.02,Wunderground v.1.15,2013-06-08 02:45:00,
2013-06-07 21:50:00,71.1,68.0,29.78,NNE,23,1.0,4.0,90,0.00,,,0.02,Wunderground v.1.15,2013-06-08 02:50:00,
2013-06-07 21:55:00,71.0,68.2,29.78,NNE,23,1.0,4.0,91,0.00,,,0.02,Wunderground v.1.15,2013-06-08 02:55:00,
2013-06-07 22:00:00,70.8,68.0,29.78,NNE,23,1.0,4.0,91,0.00,,,0.02,Wunderground v.1.15,2013-06-08 03:00:00,
2013-06-07 22:10:00,70.8,68.0,29.78,NE,37,2.0,2.0,91,0.00,,,0.02,Wunderground v.1.15,2013-06-08 03:10:00,
2013-06-07 22:20:00,71.3,68.2,29.78,NE,37,2.0,4.0,90,0.00,,,0.02,Wunderground v.1.15,2013-06-08 03:20:00,
2013-06-07 22:25:00,71.6,68.2,29.79,NE,37,2.0,4.0,89,0.00,,,0.02,Wunderground v.1.15,2013-06-08 03:25:00,
2013-06-07 22:30:00,71.8,68.1,29.79,NE,42,2.0,4.0,88,0.00,,,0.02,Wunderground v.1.15,2013-06-08 03:30:00,
2013-06-07 22:35:00,71.8,68.1,29.79,NE,42,2.0,4.0,88,0.00,,,0.02,Wunderground v.1.15,2013-06-08 03:35:00,
2013-06-07 22:40:00,71.9,68.2,29.79,NE,45,2.0,4.0,88,0.00,,,0.02,Wunderground v.1.15,2013-06-08 03:40:00,
2013-06-07 22:45:00,71.8,68.1,29.79,NE,45,1.0,4.0,88,0.00,,,0.02,Wunderground v.1.15,2013-06-08 03:45:00,
2013-06-07 22:50:00,71.6,67.9,29.79,NE,45,1.0,4.0,88,0.00,,,0.02,Wunderground v.1.15,2013-06-08 03:50:00,
2013-06-07 22:55:00,71.5,67.8,29.79,NE,45,2.0,4.0,88,0.00,,,0.02,Wunderground v.1.15,2013-06-08 03:55:00,
2013-06-07 23:05:00,71.4,67.7,29.79,NE,45,2.0,4.0,88,0.00,,,0.02,Wunderground v.1.15,2013-06-08 04:05:00,
2013-06-07 23:10:00,71.3,67.6,29.79,NE,45,2.0,4.0,88,0.00,,,0.02,Wunderground v.1.15,2013-06-08 04:10:00,
2013-06-07 23:15:00,71.2,67.5,29.79,NE,45,2.0,4.0,88,0.00,,,0.02,Wunderground v.1.15,2013-06-08 04:15:00,
2013-06-07 23:20:00,71.1,67.4,29.79,NE,45,1.0,1.0,88,0.00,,,0.02,Wunderground v.1.15,2013-06-08 04:20:00,
2013-06-07 23:25:00,71.0,67.3,29.80,NE,45,1.0,4.0,88,0.00,,,0.02,Wunderground v.1.15,2013-06-08 04:25:00,
2013-06-07 23:30:00,71.0,67.3,29.80,NE,45,1.0,4.0,88,0.00,,,0.02,Wunderground v.1.15,2013-06-08 04:30:00,
2013-06-07 23:35:00,70.9,67.2,29.80,NE,45,1.0,4.0,88,0.00,,,0.02,Wunderground v.1.15,2013-06-08 04:35:00,
2013-06-07 23:40:00,70.7,67.0,29.80,NE,45,1.0,4.0,88,0.00,,,0.02,Wunderground v.1.15,2013-06-08 04:40:00,
2013-06-07 23:45:00,70.5,67.1,29.80,NE,45,1.0,4.0,89,0.00,,,0.02,Wunderground v.1.15,2013-06-08 04:45:00,
2013-06-07 23:50:00,70.3,66.9,29.80,NE,45,1.0,4.0,89,0.00,,,0.02,Wunderground v.1.15,2013-06-08 04:50:00,
2013-06-07 23:55:00,70.3,66.9,29.80,NE,45,1.0,4.0,89,0.00,,,0.02,Wunderground v.1.15,2013-06-08 04:55:00,